Terminal Aerodrome Forecast
Issued by NWS

Home | Current Version | Previous Version | Text Only | Print | Product List | Glossary On
Versions: 1 2 3 4 5 6 7 8 9 10 11 12 13 14 15 16 17 18 19 20 21 22 23 24 25 26 27
000
FTUS43 KDTX 252322
TAFPTK
TAF
KPTK 252322Z 2600/2624 24012G20KT P6SM SCT045 BKN060 BKN200
     FM260200 21010KT P6SM SCT040 BKN200
     FM261000 20006KT 3SM BR BKN012
     FM261600 21012KT P6SM SCT045 BKN060=

USA.gov is the U.S. government's official web portal to all federal, state and local government web resources and services.